Weather History for Iowa Falls, IA

Change the Weather History Date:

Tuesday, July 3, 2012

  Actual Average Record
Temperature  
Mean Temperature 82 °F -  
Max Temperature 93 °F 85 °F 100 °F (1990)
Min Temperature 70 °F 60 °F 49 °F (1961)
Cooling Degree Days 16    
Growing Degree Days 32 (Base 50)    
Moisture  
Dew Point 70 °F    
Average Humidity 69    
Maximum Humidity 88    
Minimum Humidity 49    
Precipitation  
Precipitation 0.00 in - - ()
Sea Level Pressure  
Sea Level Pressure 29.85 in    
Wind  
Wind Speed 7 mph (South)    
Max Wind Speed 16 mph    
Max Gust Speed 21 mph    
Visibility 10 miles    
Events      
Averages and records for this station are not official NWS values.
T = Trace of Precipitation, MM = Missing Value Source: NWS Daily Summary

Daily Weather History Graph

Daily Weather History Graph

Search for Another Location

Airport:

Trip Planner

Search our weather history database for the weather conditions in past years. The results will help you decide how hot, cold, wet, or windy it might be!

Date:

Astronomy

Jul. 03, 2012 Rise Set
Actual Time 5:41 AM CDT 8:53 PM CDT
Civil Twilight 5:06 AM CDT 9:28 PM CDT
Nautical Twilight 4:21 AM CDT 10:12 PM CDT
Astronomical Twilight 3:28 AM CDT 11:06 PM CDT
Moon 8:47 PM CDT (7/3) 5:35 AM CDT (7/3)
Length of Visible Light 16h 21m
Length of Day
15h 12m
Full, 100% of the Moon is Illuminated
Jul 3
Full
Jul 3
Full
Jul 10
Last Quarter
Jul 18
New
Jul 26
First Quarter

Hourly Weather History & Observations

Time (CDT) Temp. Heat Index Dew Point Humidity Pressure Visibility Wind Dir Wind Speed Gust Speed Precip Events Conditions
12:15 AM 74.8 °F - 69.8 °F 84% 29.92 in 10.0 mi South 6.9 mph - N/A   Unknown
12:35 AM 74.1 °F - 69.3 °F 85% 29.92 in 10.0 mi South 4.6 mph - N/A   Unknown
12:55 AM 73.4 °F - 68.9 °F 86% 29.91 in 10.0 mi South 5.8 mph - N/A   Unknown
1:15 AM 73.4 °F - 68.9 °F 86% 29.90 in 10.0 mi South 5.8 mph - N/A   Unknown
1:35 AM 73.4 °F - 68.5 °F 85% 29.90 in 10.0 mi South 5.8 mph - N/A   Unknown
1:55 AM 73.4 °F - 68.4 °F 84% 29.89 in 10.0 mi South 5.8 mph - N/A   Unknown
2:35 AM 73.4 °F - 68.0 °F 83% 29.88 in 10.0 mi South 5.8 mph - N/A   Unknown
2:55 AM 73.2 °F - 68.0 °F 84% 29.88 in 10.0 mi South 5.8 mph - N/A   Unknown
3:15 AM 73.2 °F - 67.8 °F 83% 29.87 in 10.0 mi South 6.9 mph - N/A   Unknown
3:35 AM 73.8 °F - 68.0 °F 82% 29.86 in 10.0 mi SSW 5.8 mph - N/A   Unknown
3:55 AM 73.4 °F - 67.6 °F 82% 29.86 in 10.0 mi South 6.9 mph - N/A   Unknown
4:15 AM 72.1 °F - 67.5 °F 85% 29.86 in 10.0 mi South 5.8 mph - N/A   Unknown
4:35 AM 72.1 °F - 67.1 °F 84% 29.87 in 10.0 mi SSE 5.8 mph - N/A   Unknown
4:55 AM 70.7 °F - 67.1 °F 88% 29.87 in 10.0 mi SSE 6.9 mph - N/A   Unknown
5:35 AM 71.8 °F - 67.1 °F 85% 29.86 in 10.0 mi South 8.1 mph - N/A   Unknown
5:55 AM 71.1 °F - 67.1 °F 87% 29.87 in 10.0 mi South 6.9 mph - N/A   Unknown
6:15 AM 71.1 °F - 67.1 °F 87% 29.87 in 10.0 mi South 6.9 mph - N/A   Unknown
6:35 AM 72.0 °F - 67.3 °F 85% 29.88 in 10.0 mi South 6.9 mph - N/A   Unknown
6:55 AM 72.1 °F - 67.5 °F 85% 29.88 in 10.0 mi South 6.9 mph - N/A   Unknown
7:15 AM 73.0 °F - 67.8 °F 84% 29.89 in 10.0 mi South 8.1 mph - N/A   Unknown
7:35 AM 74.7 °F - 68.2 °F 80% 29.90 in 10.0 mi South 4.6 mph - N/A   Unknown
7:55 AM 76.3 °F - 68.2 °F 76% 29.90 in 10.0 mi SE 4.6 mph - N/A   Unknown
8:15 AM 77.9 °F - 68.9 °F 74% 29.91 in 10.0 mi SSE 3.5 mph - N/A   Unknown
8:35 AM 79.3 °F - 69.1 °F 71% 29.91 in 10.0 mi SW 3.5 mph - N/A   Unknown
8:55 AM 80.2 °F 83.2 °F 69.3 °F 69% 29.90 in 10.0 mi SW 6.9 mph - N/A   Unknown
9:15 AM 82.0 °F 85.5 °F 69.1 °F 65% 29.90 in 10.0 mi SSW 5.8 mph - N/A   Unknown
9:35 AM 83.7 °F 87.0 °F 68.5 °F 60% 29.90 in 10.0 mi SW 5.8 mph - N/A   Unknown
9:55 AM 84.2 °F 87.6 °F 68.5 °F 59% 29.89 in 10.0 mi SW 5.8 mph - N/A   Unknown
10:35 AM 85.5 °F 90.1 °F 70.2 °F 60% 29.89 in 10.0 mi South 9.2 mph - N/A   Unknown
10:55 AM 86.5 °F 91.8 °F 70.5 °F 59% 29.88 in 10.0 mi South 9.2 mph - N/A   Unknown
11:15 AM 84.9 °F 89.7 °F 70.5 °F 62% 29.88 in 10.0 mi South 8.1 mph - N/A   Unknown
11:35 AM 84.7 °F 90.4 °F 71.8 °F 65% 29.86 in 10.0 mi South 12.7 mph - N/A   Unknown
11:55 AM 85.5 °F 91.1 °F 71.4 °F 63% 29.84 in 10.0 mi South 16.1 mph - N/A   Unknown
12:15 PM 87.8 °F 93.8 °F 71.4 °F 58% 29.84 in 10.0 mi South 15.0 mph - N/A   Unknown
12:35 PM 88.7 °F 94.8 °F 71.4 °F 56% 29.84 in 10.0 mi South 15.0 mph 20.7 mph N/A   Unknown
12:55 PM 89.6 °F 96.6 °F 72.0 °F 56% 29.84 in 10.0 mi SSW 11.5 mph 18.4 mph N/A   Unknown
1:15 PM 90.3 °F 98.7 °F 73.2 °F 57% 29.84 in 10.0 mi SSW 13.8 mph - N/A   Unknown
1:35 PM 90.5 °F 98.1 °F 72.1 °F 55% 29.83 in 10.0 mi South 13.8 mph - N/A   Unknown
1:55 PM 91.0 °F 99.3 °F 72.7 °F 55% 29.83 in 10.0 mi SSW 15.0 mph - N/A   Unknown
2:15 PM 91.2 °F 99.7 °F 73.0 °F 55% 29.82 in 10.0 mi SSW 13.8 mph 20.7 mph N/A   Unknown
2:35 PM 92.1 °F 101.7 °F 73.8 °F 55% 29.83 in 10.0 mi SSW 10.4 mph - N/A   Unknown
2:55 PM 91.9 °F 100.1 °F 72.5 °F 53% 29.82 in 10.0 mi SSW 15.0 mph - N/A   Unknown
3:15 PM 92.7 °F 101.7 °F 73.0 °F 53% 29.82 in 10.0 mi SSW 11.5 mph - N/A   Unknown
3:35 PM 92.8 °F 100.3 °F 71.6 °F 50% 29.82 in 10.0 mi SW 13.8 mph - N/A   Unknown
3:55 PM 93.2 °F 101.1 °F 71.8 °F 50% 29.82 in 10.0 mi SSW 12.7 mph 18.4 mph N/A   Unknown
4:15 PM 93.4 °F 102.1 °F 72.9 °F 51% 29.82 in 10.0 mi SW 12.7 mph - N/A   Unknown
4:35 PM 93.2 °F 100.5 °F 71.2 °F 49% 29.81 in 10.0 mi SSW 12.7 mph - N/A   Unknown
4:55 PM 93.2 °F 101.1 °F 71.8 °F 50% 29.81 in 10.0 mi SSW 9.2 mph 18.4 mph N/A   Unknown
5:15 PM 93.2 °F 100.5 °F 71.6 °F 49% 29.81 in 10.0 mi SSW 11.5 mph 16.1 mph N/A   Unknown
5:35 PM 93.0 °F 101.3 °F 72.3 °F 51% 29.80 in 10.0 mi SSW 8.1 mph - N/A   Unknown
5:55 PM 92.7 °F 101.1 °F 72.7 °F 52% 29.80 in 10.0 mi SSW 6.9 mph - N/A   Unknown
6:15 PM 92.3 °F 102.2 °F 73.9 °F 55% 29.80 in 10.0 mi SSW 6.9 mph - N/A   Unknown
6:35 PM 91.2 °F 99.7 °F 72.9 °F 55% 29.79 in 10.0 mi SSW 8.1 mph - N/A   Unknown
6:55 PM 90.5 °F 98.6 °F 72.9 °F 56% 29.79 in 10.0 mi SSW 6.9 mph - N/A   Unknown
7:15 PM 89.4 °F 97.3 °F 72.9 °F 58% 29.79 in 10.0 mi SSW 6.9 mph - N/A   Unknown
7:35 PM 88.0 °F 95.1 °F 72.7 °F 60% 29.79 in 10.0 mi SSW 6.9 mph - N/A   Unknown
7:55 PM 86.7 °F 93.7 °F 72.7 °F 63% 29.79 in 10.0 mi SSW 6.9 mph - N/A   Unknown
8:15 PM 85.3 °F 91.1 °F 71.8 °F 64% 29.79 in 10.0 mi SSW 6.9 mph - N/A   Unknown
8:35 PM 83.3 °F 88.4 °F 71.8 °F 68% 29.80 in 10.0 mi South 5.8 mph - N/A   Unknown
8:55 PM 81.5 °F 85.9 °F 71.6 °F 72% 29.80 in 10.0 mi South 5.8 mph - N/A   Unknown
9:15 PM 80.6 °F 84.6 °F 71.6 °F 74% 29.80 in 10.0 mi South 6.9 mph - N/A   Unknown
9:55 PM 78.8 °F - 70.9 °F 77% 29.81 in 10.0 mi South 6.9 mph - N/A   Unknown
10:15 PM 78.6 °F - 70.0 °F 75% 29.82 in 10.0 mi South 5.8 mph - N/A   Unknown
10:35 PM 77.9 °F - 69.3 °F 75% 29.82 in 10.0 mi South 5.8 mph - N/A   Unknown
10:55 PM 77.4 °F - 68.9 °F 75% 29.82 in 10.0 mi South 5.8 mph - N/A   Unknown
11:15 PM 77.2 °F - 68.9 °F 76% 29.82 in 10.0 mi South 5.8 mph - N/A   Unknown
11:35 PM 77.0 °F - 68.9 °F 76% 29.82 in 10.0 mi South 5.8 mph - N/A   Unknown
11:55 PM 77.0 °F - 68.9 °F 76% 29.82 in 10.0 mi South 6.9 mph - N/A   Unknown